Time;durP1;ratioP1;P1;durP2;ratioP2;P2;SDS_P1;SDS_P2;PMS_P1;PMS_P2;Temp;Humidity;BMP_temperature;BMP_pressure;BME280_temperature;BME280_humidity;BME280_pressure;Samples;Min_cycle;Max_cycle;Signal;HPM_P1;HPM_P2
2023/11/24 00:01:02;;;;;;;;;;;;;;;5.17;72.87;98460.58;106367;1259;74808;-90
2023/11/24 00:03:39;;;;;;;;;;;;;;;5.11;73.01;98463.29;106215;1264;124631;-89
2023/11/24 00:06:06;;;;;;;;;;;;;;;5.05;72.87;98470.70;106213;1264;72679;-89
2023/11/24 00:08:33;;;;;;;;;;;;;;;4.99;72.92;98474.48;106193;1259;61361;-89
2023/11/24 00:11:03;;;;;;;;;;;;;;;5.01;73.09;98480.04;106267;1259;124364;-89
2023/11/24 00:13:30;;;;;;;;;;;;;;;5.04;73.06;98484.94;106259;1259;74409;-89
2023/11/24 00:15:57;;;;;;;;;;;;;;;5.08;73.12;98481.85;106106;1260;123748;-88
2023/11/24 00:18:24;;;;;;;;;;;;;;;5.08;73.12;98480.80;106228;1258;73061;-87
2023/11/24 00:20:50;;;;;;;;;;;;;;;5.05;73.36;98495.57;106401;1260;124053;-86
2023/11/24 00:23:17;;;;;;;;;;;;;;;5.06;73.37;98498.88;106247;1262;61416;-87
2023/11/24 00:25:45;;;;;;;;;;;;;;;5.12;73.69;98499.45;106348;1265;74672;-86
2023/11/24 00:28:13;;;;;;;;;;;;;;;5.17;73.89;98498.99;106409;1259;124247;-84
2023/11/24 00:30:39;;;;;;;;;;;;;;;5.23;73.99;98500.10;106444;1259;72477;-91
2023/11/24 00:33:06;;;;;;;;;;;;;;;5.30;74.06;98502.08;106345;1264;124755;-88
2023/11/24 00:35:35;;;;;;;;;;;;;;;5.35;74.04;98495.52;106426;1264;61265;-90
2023/11/24 00:38:02;;;;;;;;;;;;;;;5.40;74.09;98498.88;106523;1264;74597;-89
2023/11/24 00:40:30;;;;;;;;;;;;;;;5.44;74.16;98522.55;106283;1259;123911;-91
2023/11/24 00:42:57;;;;;;;;;;;;;;;5.04;76.99;98538.99;106482;1259;71501;-90
2023/11/24 00:45:23;;;;;;;;;;;;;;;3.77;80.80;98529.58;106436;1259;125112;-86
2023/11/24 00:47:50;;;;;;;;;;;;;;;2.97;82.56;98521.76;106355;1265;61279;-86
2023/11/24 00:50:17;;;;;;;;;;;;;;;2.55;83.85;98526.28;106550;1264;73406;-86
2023/11/24 00:52:43;;;;;;;;;;;;;;;2.36;85.28;98521.90;106244;1265;124559;-86
2023/11/24 00:55:10;;;;;;;;;;;;;;;2.30;86.37;98509.31;106497;1259;72874;-85
2023/11/24 00:57:36;;;;;;;;;;;;;;;2.32;86.80;98507.63;106301;1259;124414;-85
2023/11/24 01:00:06;;;;;;;;;;;;;;;2.38;86.85;98506.36;106382;1260;61292;-84
2023/11/24 01:02:36;;;;;;;;;;;;;;;2.48;87.09;98562.66;106365;1263;73444;-83
2023/11/24 01:05:03;;;;;;;;;;;;;;;2.44;87.59;98581.79;106290;1260;124177;-83
2023/11/24 01:07:29;;;;;;;;;;;;;;;2.02;88.46;98589.98;106487;1263;70868;-85
2023/11/24 01:09:56;;;;;;;;;;;;;;;1.75;88.79;98580.50;106296;1260;124401;-83
2023/11/24 01:12:23;;;;;;;;;;;;;;;1.65;89.22;98569.19;106536;1260;61298;-83
2023/11/24 01:14:49;;;;;;;;;;;;;;;1.61;89.23;98566.85;106407;1263;125080;-84
2023/11/24 01:17:16;;;;;;;;;;;;;;;1.58;89.32;98563.32;106383;1261;64836;-84
2023/11/24 01:19:44;;;;;;;;;;;;;;;1.58;89.57;98557.44;106431;1263;72724;-84
2023/11/24 01:22:10;;;;;;;;;;;;;;;1.65;90.05;98558.47;106339;1261;123416;-85
2023/11/24 01:24:37;;;;;;;;;;;;;;;1.74;90.58;98566.46;106395;1263;61186;-84
2023/11/24 01:27:04;;;;;;;;;;;;;;;1.82;90.98;98577.22;106317;1261;124570;-84
2023/11/24 01:29:31;;;;;;;;;;;;;;;1.82;91.16;98575.67;106384;1261;65136;-84
2023/11/24 01:31:58;;;;;;;;;;;;;;;1.78;91.24;98579.89;106258;1259;72793;-83
2023/11/24 01:34:24;;;;;;;;;;;;;;;1.70;91.33;98567.59;106296;1263;124496;-84
2023/11/24 01:36:51;;;;;;;;;;;;;;;1.68;91.50;98555.77;106363;1263;60094;-84
2023/11/24 01:39:17;;;;;;;;;;;;;;;1.69;91.62;98544.73;106326;1259;124683;-84
2023/11/24 01:41:45;;;;;;;;;;;;;;;1.77;91.88;98541.98;106436;1260;63753;-85
2023/11/24 01:44:12;;;;;;;;;;;;;;;1.85;92.24;98536.33;106456;1260;73224;-83
2023/11/24 01:46:41;;;;;;;;;;;;;;;1.93;92.36;98529.41;106367;1263;124345;-84
2023/11/24 01:49:09;;;;;;;;;;;;;;;2.01;92.54;98523.55;106455;1267;61188;-84
2023/11/24 01:51:35;;;;;;;;;;;;;;;2.08;92.68;98523.02;106345;1260;124494;-91
2023/11/24 01:54:02;;;;;;;;;;;;;;;2.11;92.60;98526.20;106442;1259;66400;-91
2023/11/24 01:56:28;;;;;;;;;;;;;;;2.11;92.49;98517.89;106350;1263;72726;-91
2023/11/24 01:58:55;;;;;;;;;;;;;;;2.14;92.62;98522.12;106281;1263;124469;-90
2023/11/24 02:01:22;;;;;;;;;;;;;;;2.21;93.05;98522.09;106330;1261;61295;-90
2023/11/24 02:03:49;;;;;;;;;;;;;;;2.32;93.52;98531.86;106144;1261;124611;-90
2023/11/24 02:06:16;;;;;;;;;;;;;;;2.44;93.72;98535.23;106359;1263;65348;-90
2023/11/24 02:08:42;;;;;;;;;;;;;;;2.55;94.01;98540.65;106344;1263;124624;-92
2023/11/24 02:11:09;;;;;;;;;;;;;;;2.58;93.68;98537.42;106438;1261;61338;-90
2023/11/24 02:13:36;;;;;;;;;;;;;;;2.63;94.00;98513.48;106497;1264;61140;-91
2023/11/24 02:16:03;;;;;;;;;;;;;;;2.71;94.20;98508.10;106310;1263;124522;-91
2023/11/24 02:18:30;;;;;;;;;;;;;;;2.80;94.55;98520.73;106430;1260;64903;-92
2023/11/24 02:21:00;;;;;;;;;;;;;;;2.85;94.38;98514.77;106516;1263;124909;-92
2023/11/24 02:23:27;;;;;;;;;;;;;;;2.92;94.55;98505.39;106410;1263;61240;-83
2023/11/24 02:25:53;;;;;;;;;;;;;;;2.97;94.62;98499.41;106540;1263;61248;-85
2023/11/24 02:28:20;;;;;;;;;;;;;;;2.92;94.22;98498.30;106393;1261;125361;-83
2023/11/24 02:30:47;;;;;;;;;;;;;;;2.83;93.96;98499.85;106495;1260;64973;-83
2023/11/24 02:33:13;;;;;;;;;;;;;;;2.77;93.88;98494.35;106392;1264;124574;-82
2023/11/24 02:35:42;;;;;;;;;;;;;;;2.75;94.08;98500.39;106432;1260;59295;-89
2023/11/24 02:38:09;;;;;;;;;;;;;;;2.76;94.21;98502.99;106342;1265;61146;-89
2023/11/24 02:40:35;;;;;;;;;;;;;;;2.80;94.44;98508.27;106521;1260;124520;-92
2023/11/24 02:43:02;;;;;;;;;;;;;;;2.76;94.32;98501.10;106532;1261;65071;-89
2023/11/24 02:45:28;;;;;;;;;;;;;;;2.72;94.26;98507.42;106241;1259;124605;-83
2023/11/24 02:47:55;;;;;;;;;;;;;;;2.75;94.58;98504.71;106343;1261;61228;-83
2023/11/24 02:50:22;;;;;;;;;;;;;;;2.81;94.86;98502.24;106572;1260;61267;-83
2023/11/24 02:52:49;;;;;;;;;;;;;;;2.85;95.00;98506.48;106379;1264;124360;-83
2023/11/24 02:55:18;;;;;;;;;;;;;;;2.84;94.82;98508.70;106439;1260;65282;-84
2023/11/24 02:57:44;;;;;;;;;;;;;;;2.79;94.67;98504.27;106326;1263;125591;-84
2023/11/24 03:00:16;;;;;;;;;;;;;;;2.72;94.57;98505.87;106539;1261;61283;-84
2023/11/24 03:02:42;;;;;;;;;;;;;;;2.66;94.50;98508.86;106322;1261;125134;-82
2023/11/24 03:05:11;;;;;;;;;;;;;;;2.69;94.88;98515.84;106451;1259;74656;-83
2023/11/24 03:07:38;;;;;;;;;;;;;;;2.79;95.29;98512.59;106595;1263;66296;-84
2023/11/24 03:10:05;;;;;;;;;;;;;;;2.84;95.42;98506.80;106326;1261;125503;-86
2023/11/24 03:12:31;;;;;;;;;;;;;;;2.90;95.53;98504.66;106357;1261;61235;-84
2023/11/24 03:14:58;;;;;;;;;;;;;;;2.93;95.69;98503.16;106370;1263;124534;-83
2023/11/24 03:17:25;;;;;;;;;;;;;;;2.96;95.72;98503.54;106363;1261;75292;-83
2023/11/24 03:19:52;;;;;;;;;;;;;;;2.94;95.54;98498.33;106516;1261;61303;-84
2023/11/24 03:22:18;;;;;;;;;;;;;;;2.86;95.30;98494.88;106384;1260;124849;-84
2023/11/24 03:24:45;;;;;;;;;;;;;;;2.73;94.81;98496.36;106467;1261;61115;-83
2023/11/24 03:27:11;;;;;;;;;;;;;;;2.61;94.59;98491.08;106471;1260;124476;-83
2023/11/24 03:29:39;;;;;;;;;;;;;;;2.50;94.57;98485.34;106465;1262;73399;-83
2023/11/24 03:32:06;;;;;;;;;;;;;;;2.40;94.55;98483.20;106477;1263;66130;-83
2023/11/24 03:34:33;;;;;;;;;;;;;;;2.33;94.67;98483.08;106389;1261;124352;-83
2023/11/24 03:37:00;;;;;;;;;;;;;;;2.27;94.86;98482.60;106460;1261;61200;-83
2023/11/24 03:39:27;;;;;;;;;;;;;;;2.23;94.77;98479.73;106400;1260;124445;-83
2023/11/24 03:41:53;;;;;;;;;;;;;;;2.18;95.00;98481.37;106357;1264;74639;-83
2023/11/24 03:44:20;;;;;;;;;;;;;;;2.14;95.10;98482.84;106513;1259;65056;-82
2023/11/24 03:46:47;;;;;;;;;;;;;;;2.11;95.03;98483.80;106376;1263;124361;-82
2023/11/24 03:49:13;;;;;;;;;;;;;;;2.09;95.25;98487.75;106426;1261;61333;-82
2023/11/24 03:51:40;;;;;;;;;;;;;;;2.07;95.35;98489.59;106267;1260;124515;-83
2023/11/24 03:54:07;;;;;;;;;;;;;;;2.06;95.50;98494.23;106330;1261;73656;-83
2023/11/24 03:56:34;;;;;;;;;;;;;;;2.06;95.68;98495.98;106406;1263;65092;-83
2023/11/24 03:59:00;;;;;;;;;;;;;;;2.07;95.90;98487.00;106134;1263;124538;-83
2023/11/24 04:01:27;;;;;;;;;;;;;;;2.07;95.85;98483.03;106366;1260;59916;-84
2023/11/24 04:03:55;;;;;;;;;;;;;;;2.06;95.98;98478.52;106126;1260;125592;-83
2023/11/24 04:06:22;;;;;;;;;;;;;;;2.06;95.81;98481.09;106382;1261;74631;-84
2023/11/24 04:08:49;;;;;;;;;;;;;;;2.04;96.04;98485.38;106240;1261;124772;-83
2023/11/24 04:11:15;;;;;;;;;;;;;;;2.02;95.76;98489.13;106340;1260;71500;-82
2023/11/24 04:13:42;;;;;;;;;;;;;;;2.02;96.02;98488.11;106384;1261;61219;-82
2023/11/24 04:16:08;;;;;;;;;;;;;;;2.10;96.38;98489.14;106302;1261;124489;-84
2023/11/24 04:18:35;;;;;;;;;;;;;;;2.20;96.54;98490.23;106507;1261;74712;-85
2023/11/24 04:21:01;;;;;;;;;;;;;;;2.30;96.73;98484.04;106320;1263;124507;-83
2023/11/24 04:23:28;;;;;;;;;;;;;;;2.40;97.04;98489.98;106148;1259;72890;-83
2023/11/24 04:25:55;;;;;;;;;;;;;;;2.52;97.11;98501.83;106342;1262;59536;-84
2023/11/24 04:28:21;;;;;;;;;;;;;;;2.62;97.19;98500.11;106301;1261;124403;-84
2023/11/24 04:30:48;;;;;;;;;;;;;;;2.68;97.12;98489.84;106420;1264;73898;-84
2023/11/24 04:33:14;;;;;;;;;;;;;;;2.73;97.18;98495.49;106150;1263;124900;-83
2023/11/24 04:35:41;;;;;;;;;;;;;;;2.77;96.95;98490.20;106317;1260;72422;-84
2023/11/24 04:38:08;;;;;;;;;;;;;;;2.73;96.65;98488.75;106370;1263;61376;-83
2023/11/24 04:40:34;;;;;;;;;;;;;;;2.61;95.98;98479.84;106337;1260;125086;-83
2023/11/24 04:43:01;;;;;;;;;;;;;;;2.48;95.66;98470.91;106460;1260;73539;-83
2023/11/24 04:45:28;;;;;;;;;;;;;;;2.36;95.51;98467.20;106253;1263;124564;-83
2023/11/24 04:47:54;;;;;;;;;;;;;;;2.28;95.61;98461.01;106380;1263;70671;-84
2023/11/24 04:50:21;;;;;;;;;;;;;;;2.23;95.55;98458.28;106476;1259;61341;-84
2023/11/24 04:52:47;;;;;;;;;;;;;;;2.17;95.59;98461.95;106265;1261;124609;-82
2023/11/24 04:55:15;;;;;;;;;;;;;;;2.12;95.50;98459.79;106423;1260;73512;-84
2023/11/24 04:57:42;;;;;;;;;;;;;;;2.08;95.54;98457.46;106490;1264;124321;-84
2023/11/24 05:00:09;;;;;;;;;;;;;;;2.05;95.58;98460.33;106317;1260;72708;-82
2023/11/24 05:02:36;;;;;;;;;;;;;;;2.03;95.87;98457.86;106419;1260;61306;-86
2023/11/24 05:05:02;;;;;;;;;;;;;;;2.00;95.74;98454.67;106282;1260;124135;-87
2023/11/24 05:07:29;;;;;;;;;;;;;;;1.98;95.71;98457.05;106466;1260;74738;-88
2023/11/24 05:09:55;;;;;;;;;;;;;;;1.97;95.78;98460.32;106248;1260;124541;-87
2023/11/24 05:12:22;;;;;;;;;;;;;;;2.00;95.91;98459.67;106428;1260;71497;-86
2023/11/24 05:14:49;;;;;;;;;;;;;;;2.03;96.04;98462.69;106385;1260;125012;-82
2023/11/24 05:17:15;;;;;;;;;;;;;;;2.02;95.80;98468.02;106345;1261;61252;-87
2023/11/24 05:19:42;;;;;;;;;;;;;;;1.98;95.72;98464.83;106385;1260;74496;-87
2023/11/24 05:22:08;;;;;;;;;;;;;;;1.94;95.59;98458.02;106350;1263;126000;-85
2023/11/24 05:24:39;;;;;;;;;;;;;;;1.91;95.54;98457.59;106191;1261;71063;-85
2023/11/24 05:27:06;;;;;;;;;;;;;;;1.88;95.40;98455.96;106381;1260;124535;-87
2023/11/24 05:29:32;;;;;;;;;;;;;;;1.85;95.30;98458.66;106332;1260;61215;-85
2023/11/24 05:31:59;;;;;;;;;;;;;;;1.82;95.24;98451.16;106189;1260;74513;-85
2023/11/24 05:34:26;;;;;;;;;;;;;;;1.79;95.10;98453.50;106342;1260;124737;-87
2023/11/24 05:36:53;;;;;;;;;;;;;;;1.76;95.00;98451.39;106384;1260;72614;-88
2023/11/24 05:39:19;;;;;;;;;;;;;;;1.74;94.93;98461.00;106275;1259;125027;-87
2023/11/24 05:41:46;;;;;;;;;;;;;;;1.71;94.65;98469.41;106389;1261;61269;-88
2023/11/24 05:44:15;;;;;;;;;;;;;;;1.71;94.68;98475.81;106459;1262;73366;-88
2023/11/24 05:46:42;;;;;;;;;;;;;;;1.71;94.66;98481.69;106300;1260;124814;-87
2023/11/24 05:49:09;;;;;;;;;;;;;;;1.71;94.46;98486.89;106496;1259;70137;-87
2023/11/24 05:51:35;;;;;;;;;;;;;;;1.73;94.15;98476.20;106277;1259;125364;-86
2023/11/24 05:54:22;;;;;;;;;;;;;;;1.76;93.87;98476.10;106503;1260;61383;-93
2023/11/24 05:57:05;;;;;;;;;;;;;;;1.80;93.44;98481.89;106427;1260;124754;-84
2023/11/24 05:59:31;;;;;;;;;;;;;;;1.83;93.13;98480.23;106466;1263;66274;-87
2023/11/24 06:01:58;;;;;;;;;;;;;;;1.84;92.85;98477.83;106702;1259;71287;-88
2023/11/24 06:04:25;;;;;;;;;;;;;;;1.87;92.75;98478.95;107378;1260;124472;-86
2023/11/24 06:06:51;;;;;;;;;;;;;;;1.90;92.58;98475.55;107513;1259;61203;-93
2023/11/24 06:09:18;;;;;;;;;;;;;;;1.92;92.35;98479.23;106433;1259;123305;-87
2023/11/24 06:11:45;;;;;;;;;;;;;;;1.94;92.25;98478.42;106138;1267;65091;-89
2023/11/24 06:14:12;;;;;;;;;;;;;;;1.96;91.90;98477.75;106251;1261;71560;-85
2023/11/24 06:16:39;;;;;;;;;;;;;;;2.00;91.95;98485.13;106213;1259;123175;-90
2023/11/24 06:19:06;;;;;;;;;;;;;;;2.07;91.95;98487.86;106830;1259;61286;-89
2023/11/24 06:21:33;;;;;;;;;;;;;;;2.09;91.66;98495.20;107243;1259;124594;-91
2023/11/24 06:24:00;;;;;;;;;;;;;;;2.11;91.43;98505.09;106706;1259;65040;-85
2023/11/24 06:26:27;;;;;;;;;;;;;;;2.22;91.74;98517.27;106613;1263;70920;-86
2023/11/24 06:28:54;;;;;;;;;;;;;;;2.33;91.87;98510.08;106347;1259;124500;-83
2023/11/24 06:31:20;;;;;;;;;;;;;;;2.42;91.73;98521.16;106745;1264;61280;-83
2023/11/24 06:33:47;;;;;;;;;;;;;;;2.49;91.46;98531.71;106510;1259;124894;-83
2023/11/24 06:36:14;;;;;;;;;;;;;;;2.58;91.42;98544.70;106512;1259;64779;-84
2023/11/24 06:38:41;;;;;;;;;;;;;;;2.66;91.25;98555.27;106726;1260;125040;-83
2023/11/24 06:41:08;;;;;;;;;;;;;;;2.74;91.13;98569.45;106488;1259;59537;-84
2023/11/24 06:43:35;;;;;;;;;;;;;;;2.80;90.90;98590.20;106838;1259;61257;-84
2023/11/24 06:46:02;;;;;;;;;;;;;;;2.62;90.28;98605.73;106753;1261;124605;-83
2023/11/24 06:48:29;;;;;;;;;;;;;;;2.08;91.12;98634.93;106589;1259;64758;-81
2023/11/24 06:50:56;;;;;;;;;;;;;;;1.45;93.59;98625.36;106937;1259;124659;-89
2023/11/24 06:53:22;;;;;;;;;;;;;;;1.09;95.55;98625.42;107122;1259;59277;-88
2023/11/24 06:55:49;;;;;;;;;;;;;;;0.93;96.37;98620.98;106877;1260;60263;-88
2023/11/24 06:58:15;;;;;;;;;;;;;;;0.83;96.71;98616.73;106484;1259;124383;-89
2023/11/24 07:00:42;;;;;;;;;;;;;;;0.78;97.17;98619.69;106553;1259;64890;-88
2023/11/24 07:03:08;;;;;;;;;;;;;;;0.78;97.58;98624.35;106548;1264;124686;-88
2023/11/24 07:05:35;;;;;;;;;;;;;;;0.82;98.40;98634.13;106422;1259;61385;-89
2023/11/24 07:08:02;;;;;;;;;;;;;;;0.87;98.67;98635.48;106429;1260;59277;-88
2023/11/24 07:10:29;;;;;;;;;;;;;;;0.92;99.09;98634.09;106365;1261;125239;-88
2023/11/24 07:12:56;;;;;;;;;;;;;;;0.99;99.29;98637.55;106513;1260;66431;-88
2023/11/24 07:15:23;;;;;;;;;;;;;;;1.03;99.29;98640.77;106676;1259;125630;-88
2023/11/24 07:17:49;;;;;;;;;;;;;;;1.05;99.30;98636.88;106829;1259;62840;-89
2023/11/24 07:20:16;;;;;;;;;;;;;;;1.06;99.49;98644.85;106833;1258;61290;-88
2023/11/24 07:22:43;;;;;;;;;;;;;;;1.06;99.56;98636.20;106553;1259;124244;-88
2023/11/24 07:25:10;;;;;;;;;;;;;;;0.98;99.31;98633.58;106612;1260;66135;-90
2023/11/24 07:27:37;;;;;;;;;;;;;;;0.87;99.14;98633.08;106554;1264;124307;-89
2023/11/24 07:30:04;;;;;;;;;;;;;;;0.82;99.28;98626.72;106679;1259;61400;-89
2023/11/24 07:32:31;;;;;;;;;;;;;;;0.82;99.78;98618.95;106701;1259;61269;-89
2023/11/24 07:34:57;;;;;;;;;;;;;;;0.90;100.00;98622.29;106548;1259;123374;-89
2023/11/24 07:37:26;;;;;;;;;;;;;;;0.96;100.00;98630.73;106551;1264;65606;-89
2023/11/24 07:39:53;;;;;;;;;;;;;;;1.04;100.00;98635.30;106544;1259;124595;-89
2023/11/24 07:42:21;;;;;;;;;;;;;;;1.11;100.00;98638.60;106656;1259;61171;-90
2023/11/24 07:44:48;;;;;;;;;;;;;;;1.14;100.00;98637.48;106436;1259;124903;-90
2023/11/24 07:47:18;;;;;;;;;;;;;;;1.16;100.00;98641.67;106540;1259;74677;-90
2023/11/24 07:49:45;;;;;;;;;;;;;;;1.15;100.00;98640.61;106559;1259;64723;-90
2023/11/24 07:52:11;;;;;;;;;;;;;;;1.17;100.00;98632.03;106370;1259;124597;-89
2023/11/24 07:54:40;;;;;;;;;;;;;;;1.25;100.00;98622.92;106428;1259;59745;-89
2023/11/24 07:57:07;;;;;;;;;;;;;;;1.33;100.00;98618.65;106294;1259;125073;-89
2023/11/24 07:59:34;;;;;;;;;;;;;;;1.43;100.00;98621.50;106475;1264;74727;-89
2023/11/24 08:02:01;;;;;;;;;;;;;;;1.51;100.00;98615.85;106494;1264;65270;-89
2023/11/24 08:04:28;;;;;;;;;;;;;;;1.59;100.00;98618.48;106337;1260;124458;-89
2023/11/24 08:06:54;;;;;;;;;;;;;;;1.66;100.00;98618.14;106451;1259;59282;-89
2023/11/24 08:09:21;;;;;;;;;;;;;;;1.72;100.00;98616.42;106287;1259;125883;-89
2023/11/24 08:11:48;;;;;;;;;;;;;;;1.73;100.00;98609.69;106427;1259;75342;-90
2023/11/24 08:14:15;;;;;;;;;;;;;;;1.72;100.00;98609.14;106499;1259;65631;-90
2023/11/24 08:16:41;;;;;;;;;;;;;;;1.74;100.00;98612.64;106465;1259;124402;-89
2023/11/24 08:19:08;;;;;;;;;;;;;;;1.78;100.00;98613.79;106638;1259;61247;-90
2023/11/24 08:21:34;;;;;;;;;;;;;;;1.80;100.00;98616.95;106654;1259;123813;-90
2023/11/24 08:24:01;;;;;;;;;;;;;;;1.84;100.00;98624.48;106769;1263;74517;-90
2023/11/24 08:26:29;;;;;;;;;;;;;;;1.84;100.00;98628.81;106641;1259;65089;-89
2023/11/24 08:28:55;;;;;;;;;;;;;;;1.83;100.00;98633.98;106517;1259;124521;-89
2023/11/24 08:31:22;;;;;;;;;;;;;;;1.80;100.00;98630.10;106697;1259;59385;-89
2023/11/24 08:33:48;;;;;;;;;;;;;;;1.76;100.00;98630.17;106616;1259;124733;-89
2023/11/24 08:36:15;;;;;;;;;;;;;;;1.72;99.97;98634.73;106722;1259;73544;-90
2023/11/24 08:38:42;;;;;;;;;;;;;;;1.68;99.85;98642.91;106555;1259;124512;-89
2023/11/24 08:41:16;;;;;;;;;;;;;;;1.66;99.94;98642.02;106585;1259;72829;-90
2023/11/24 08:43:44;;;;;;;;;;;;;;;1.66;99.92;98644.23;106571;1259;59975;-90
2023/11/24 08:46:11;;;;;;;;;;;;;;;1.67;99.89;98645.67;106493;1263;124661;-89
2023/11/24 08:48:39;;;;;;;;;;;;;;;1.69;99.94;98646.41;106670;1261;74698;-89
2023/11/24 08:51:07;;;;;;;;;;;;;;;1.67;99.84;98647.90;106856;1259;124741;-90
2023/11/24 08:53:34;;;;;;;;;;;;;;;1.60;99.58;98649.44;106676;1259;72814;-89
2023/11/24 08:56:03;;;;;;;;;;;;;;;1.55;99.35;98653.29;106612;1259;61315;-89
2023/11/24 08:58:30;;;;;;;;;;;;;;;1.49;99.43;98660.05;106634;1259;124491;-89
2023/11/24 09:00:57;;;;;;;;;;;;;;;1.46;99.35;98661.35;106658;1259;74824;-89
2023/11/24 09:03:24;;;;;;;;;;;;;;;1.45;99.49;98672.89;106605;1259;124721;-89
2023/11/24 09:05:52;;;;;;;;;;;;;;;1.44;99.67;98677.54;106866;1259;72938;-89
2023/11/24 09:08:19;;;;;;;;;;;;;;;1.44;99.40;98677.52;106845;1264;61297;-89
2023/11/24 09:10:45;;;;;;;;;;;;;;;1.47;99.77;98678.51;106585;1260;124248;-89
2023/11/24 09:13:13;;;;;;;;;;;;;;;1.57;99.88;98673.94;106696;1264;74751;-88
2023/11/24 09:15:41;;;;;;;;;;;;;;;1.71;99.99;98666.67;106692;1263;124699;-89
2023/11/24 09:18:07;;;;;;;;;;;;;;;1.86;99.99;98665.52;106880;1259;71971;-89
2023/11/24 09:20:34;;;;;;;;;;;;;;;1.93;99.98;98673.48;106887;1259;61303;-89
2023/11/24 09:23:00;;;;;;;;;;;;;;;2.01;99.97;98675.25;106635;1262;168706;-89
2023/11/24 09:25:27;;;;;;;;;;;;;;;2.09;99.91;98679.96;106736;1259;74678;-89
2023/11/24 09:27:53;;;;;;;;;;;;;;;2.17;99.89;98692.42;106566;1263;124301;-89
2023/11/24 09:30:20;;;;;;;;;;;;;;;2.11;99.60;98693.33;106561;1259;72789;-89
2023/11/24 09:32:49;;;;;;;;;;;;;;;2.04;99.03;98693.13;106605;1259;124828;-89
2023/11/24 09:35:16;;;;;;;;;;;;;;;1.97;98.73;98691.91;106416;1259;61267;-89
2023/11/24 09:37:42;;;;;;;;;;;;;;;1.99;98.63;98679.02;106532;1260;74631;-89
2023/11/24 09:40:16;;;;;;;;;;;;;;;2.03;98.49;98677.39;106405;1264;124553;-89
2023/11/24 09:42:43;;;;;;;;;;;;;;;1.95;97.85;98673.36;106779;1259;71249;-89
2023/11/24 09:45:15;;;;;;;;;;;;;;;1.91;97.69;98668.26;106385;1259;124526;-89
2023/11/24 09:47:43;;;;;;;;;;;;;;;1.95;97.68;98670.43;106409;1260;61360;-89
2023/11/24 09:50:12;;;;;;;;;;;;;;;2.06;97.89;98664.83;106425;1259;73990;-89
2023/11/24 09:52:40;;;;;;;;;;;;;;;2.23;98.10;98663.16;106452;1262;123223;-89
2023/11/24 09:55:07;;;;;;;;;;;;;;;2.39;98.23;98661.31;106517;1261;71805;-88
2023/11/24 09:57:34;;;;;;;;;;;;;;;2.57;98.29;98663.27;106454;1259;124479;-90
2023/11/24 10:00:00;;;;;;;;;;;;;;;2.64;97.96;98659.11;106539;1259;61379;-89
2023/11/24 10:02:27;;;;;;;;;;;;;;;2.73;97.85;98651.02;106649;1260;72822;-89
2023/11/24 10:04:53;;;;;;;;;;;;;;;2.83;97.65;98643.25;106564;1259;124398;-88
2023/11/24 10:07:20;;;;;;;;;;;;;;;2.88;97.35;98641.83;106772;1259;61354;-88
2023/11/24 10:09:48;;;;;;;;;;;;;;;3.01;97.68;98643.48;106713;1263;125389;-88
2023/11/24 10:12:15;;;;;;;;;;;;;;;3.12;97.54;98639.20;106727;1259;61455;-89
2023/11/24 10:14:46;;;;;;;;;;;;;;;3.23;97.54;98631.80;106681;1259;124571;-88
2023/11/24 10:17:13;;;;;;;;;;;;;;;3.35;97.49;98628.05;106770;1259;64489;-89
2023/11/24 10:19:40;;;;;;;;;;;;;;;3.46;97.11;98623.75;106907;1259;72738;-89
2023/11/24 10:22:06;;;;;;;;;;;;;;;3.53;96.59;98626.48;106658;1259;124865;-89
2023/11/24 10:24:39;;;;;;;;;;;;;;;3.64;96.43;98623.38;106841;1259;59969;-90
2023/11/24 10:27:21;;;;;;;;;;;;;;;3.88;96.38;98618.09;106782;1259;125267;-89
2023/11/24 10:29:48;;;;;;;;;;;;;;;4.26;97.00;98615.60;106806;1259;65693;-89
2023/11/24 10:32:15;;;;;;;;;;;;;;;4.56;96.70;98608.94;106853;1259;71165;-90
2023/11/24 10:34:43;;;;;;;;;;;;;;;4.69;95.83;98604.58;106649;1261;124278;-90
2023/11/24 10:37:10;;;;;;;;;;;;;;;4.65;94.57;98603.84;106756;1259;61111;-90
2023/11/24 10:39:39;;;;;;;;;;;;;;;4.54;93.62;98603.52;106544;1259;125292;-89
2023/11/24 10:42:08;;;;;;;;;;;;;;;4.43;93.11;98605.78;106847;1263;65334;-89
2023/11/24 10:44:36;;;;;;;;;;;;;;;4.33;92.71;98610.51;106720;1259;72773;-89
2023/11/24 10:47:05;;;;;;;;;;;;;;;4.25;92.33;98609.16;106534;1259;124602;-90
2023/11/24 10:49:34;;;;;;;;;;;;;;;4.15;92.06;98612.47;106625;1259;61161;-90
2023/11/24 10:52:01;;;;;;;;;;;;;;;4.02;91.58;98614.70;106350;1262;124530;-89
2023/11/24 10:54:39;;;;;;;;;;;;;;;3.90;91.17;98605.98;106615;1259;64699;-90
2023/11/24 10:57:05;;;;;;;;;;;;;;;3.77;90.88;98615.46;106333;1259;124646;-89
2023/11/24 10:59:36;;;;;;;;;;;;;;;3.76;91.00;98621.00;106440;1262;61360;-89
2023/11/24 11:02:05;;;;;;;;;;;;;;;3.77;91.15;98626.91;106502;1259;61260;-90
2023/11/24 11:04:32;;;;;;;;;;;;;;;3.72;90.99;98625.96;106513;1259;124546;-90
2023/11/24 11:07:13;;;;;;;;;;;;;;;3.64;90.81;98633.45;106276;1259;66209;-89
2023/11/24 11:09:51;;;;;;;;;;;;;;;3.57;90.58;98628.99;106377;1259;123415;-89
2023/11/24 11:12:30;;;;;;;;;;;;;;;3.51;90.57;98631.31;106368;1259;61299;-89
2023/11/24 11:14:58;;;;;;;;;;;;;;;3.52;90.84;98626.98;106518;1259;124558;-90
2023/11/24 11:17:27;;;;;;;;;;;;;;;3.53;91.02;98621.45;106493;1263;74582;-90
2023/11/24 11:20:00;;;;;;;;;;;;;;;3.58;91.13;98618.77;106475;1259;65489;-89
2023/11/24 11:22:28;;;;;;;;;;;;;;;3.61;91.10;98618.64;106321;1259;123195;-89
2023/11/24 11:24:55;;;;;;;;;;;;;;;3.62;90.78;98621.10;106425;1264;61465;-90
2023/11/24 11:27:22;;;;;;;;;;;;;;;3.62;90.72;98622.84;106324;1259;126829;-90
2023/11/24 11:29:49;;;;;;;;;;;;;;;3.65;90.65;98625.48;106442;1259;72364;-89
2023/11/24 11:32:15;;;;;;;;;;;;;;;3.67;90.54;98631.09;106485;1260;64997;-90
2023/11/24 11:34:42;;;;;;;;;;;;;;;3.67;90.32;98623.27;106361;1259;126018;-90
2023/11/24 11:37:12;;;;;;;;;;;;;;;3.69;90.18;98619.49;106393;1260;61363;-90
2023/11/24 11:39:43;;;;;;;;;;;;;;;3.72;90.10;98619.37;106510;1260;126138;-89
2023/11/24 11:42:10;;;;;;;;;;;;;;;3.73;89.99;98619.23;106472;1259;75079;-90
2023/11/24 11:44:40;;;;;;;;;;;;;;;3.76;89.94;98618.92;106566;1259;64109;-84
2023/11/24 11:47:12;;;;;;;;;;;;;;;3.78;89.72;98617.23;106649;1259;73156;-84
2023/11/24 11:49:40;;;;;;;;;;;;;;;3.78;89.55;98616.52;106474;1260;59363;-84
2023/11/24 11:52:06;;;;;;;;;;;;;;;3.73;89.29;98619.73;106534;1261;124920;-85
2023/11/24 11:54:36;;;;;;;;;;;;;;;3.66;88.99;98619.44;106483;1259;74832;-83
2023/11/24 11:57:03;;;;;;;;;;;;;;;3.62;88.77;98615.20;106444;1263;124557;-84
2023/11/24 11:59:29;;;;;;;;;;;;;;;3.60;88.67;98617.42;106527;1259;72737;-84
2023/11/24 12:01:56;;;;;;;;;;;;;;;3.61;88.81;98621.08;106506;1259;61254;-84
2023/11/24 12:04:23;;;;;;;;;;;;;;;3.62;88.65;98618.34;106360;1259;124361;-84
2023/11/24 12:06:51;;;;;;;;;;;;;;;3.64;88.61;98614.73;106368;1258;74821;-85
2023/11/24 12:09:19;;;;;;;;;;;;;;;3.68;88.72;98612.71;106440;1259;124740;-84
2023/11/24 12:11:45;;;;;;;;;;;;;;;3.70;88.51;98607.71;106386;1259;73677;-84
2023/11/24 12:14:12;;;;;;;;;;;;;;;3.71;88.42;98606.86;106548;1262;61219;-85
2023/11/24 12:16:42;;;;;;;;;;;;;;;3.73;88.29;98605.34;106618;1259;123345;-85
2023/11/24 12:19:10;;;;;;;;;;;;;;;3.75;87.86;98610.58;106601;1258;74736;-84
2023/11/24 12:21:37;;;;;;;;;;;;;;;3.75;87.62;98607.28;106341;1264;124554;-84
2023/11/24 12:24:04;;;;;;;;;;;;;;;3.77;87.28;98607.66;106592;1259;72716;-83
2023/11/24 12:26:32;;;;;;;;;;;;;;;3.82;87.12;98610.88;106606;1259;59376;-85
2023/11/24 12:28:59;;;;;;;;;;;;;;;3.89;86.79;98609.25;107048;1259;124175;-82
2023/11/24 12:31:28;;;;;;;;;;;;;;;3.96;86.88;98606.42;106532;1263;73703;-85
2023/11/24 12:33:58;;;;;;;;;;;;;;;4.03;86.96;98608.46;106461;1259;124671;-85
2023/11/24 12:36:24;;;;;;;;;;;;;;;4.09;86.73;98607.86;106575;1263;72738;-84
2023/11/24 12:38:51;;;;;;;;;;;;;;;4.14;86.62;98606.20;106535;1259;124759;-85
2023/11/24 12:41:17;;;;;;;;;;;;;;;4.17;86.36;98607.98;106562;1261;61278;-84
2023/11/24 12:43:49;;;;;;;;;;;;;;;4.18;86.06;98610.78;106563;1259;73424;-89